sensor_id;sensor_type;location;lat;lon;timestamp;P1;P2;P0
71794;PMS7003;59641;45.188;5.712;2022-10-16T00:01:11;5.20;5.20;5.00
71794;PMS7003;59641;45.188;5.712;2022-10-16T00:03:39;7.40;6.40;4.60
71794;PMS7003;59641;45.188;5.712;2022-10-16T00:06:06;6.40;5.40;4.20
71794;PMS7003;59641;45.188;5.712;2022-10-16T00:08:33;5.20;5.20;3.40
71794;PMS7003;59641;45.188;5.712;2022-10-16T00:11:00;6.40;5.20;4.00
71794;PMS7003;59641;45.188;5.712;2022-10-16T00:13:31;7.00;5.60;4.60
71794;PMS7003;59641;45.188;5.712;2022-10-16T00:15:58;3.80;3.80;3.00
71794;PMS7003;59641;45.188;5.712;2022-10-16T00:18:25;5.00;5.00;4.00
71794;PMS7003;59641;45.188;5.712;2022-10-16T00:20:51;5.40;5.40;4.00
71794;PMS7003;59641;45.188;5.712;2022-10-16T00:23:17;5.25;5.00;4.50
71794;PMS7003;59641;45.188;5.712;2022-10-16T00:25:54;6.75;4.75;3.75
71794;PMS7003;59641;45.188;5.712;2022-10-16T00:28:24;5.40;4.20;3.20
71794;PMS7003;59641;45.188;5.712;2022-10-16T00:30:51;8.40;5.20;4.00
71794;PMS7003;59641;45.188;5.712;2022-10-16T00:33:17;6.00;6.00;4.00
71794;PMS7003;59641;45.188;5.712;2022-10-16T00:35:42;6.00;5.00;3.00
71794;PMS7003;59641;45.188;5.712;2022-10-16T00:38:08;6.00;6.00;4.40
71794;PMS7003;59641;45.188;5.712;2022-10-16T00:40:34;5.25;5.25;4.00
71794;PMS7003;59641;45.188;5.712;2022-10-16T00:42:59;6.75;6.00;5.00
71794;PMS7003;59641;45.188;5.712;2022-10-16T00:45:28;6.00;5.75;4.25
71794;PMS7003;59641;45.188;5.712;2022-10-16T00:47:54;10.00;7.80;6.00
71794;PMS7003;59641;45.188;5.712;2022-10-16T00:50:31;10.20;9.00;7.60
71794;PMS7003;59641;45.188;5.712;2022-10-16T00:52:59;6.80;6.40;5.00
71794;PMS7003;59641;45.188;5.712;2022-10-16T00:55:29;6.60;6.00;4.80
71794;PMS7003;59641;45.188;5.712;2022-10-16T00:57:55;8.25;6.00;5.00
71794;PMS7003;59641;45.188;5.712;2022-10-16T01:00:25;6.00;5.40;3.80
71794;PMS7003;59641;45.188;5.712;2022-10-16T01:02:59;6.20;5.00;4.00
71794;PMS7003;59641;45.188;5.712;2022-10-16T01:05:31;6.40;6.00;5.00
71794;PMS7003;59641;45.188;5.712;2022-10-16T01:08:27;9.40;7.00;4.40
71794;PMS7003;59641;45.188;5.712;2022-10-16T01:11:08;7.20;7.20;5.00
71794;PMS7003;59641;45.188;5.712;2022-10-16T01:13:41;7.60;6.80;5.60
71794;PMS7003;59641;45.188;5.712;2022-10-16T01:16:21;8.00;5.00;4.80
71794;PMS7003;59641;45.188;5.712;2022-10-16T01:19:13;5.20;5.20;4.00
71794;PMS7003;59641;45.188;5.712;2022-10-16T01:21:46;5.40;5.00;4.00
71794;PMS7003;59641;45.188;5.712;2022-10-16T01:27:18;4.60;4.60;3.20
71794;PMS7003;59641;45.188;5.712;2022-10-16T01:29:54;6.00;3.20;3.00
71794;PMS7003;59641;45.188;5.712;2022-10-16T01:32:43;4.00;4.00;3.00
71794;PMS7003;59641;45.188;5.712;2022-10-16T01:35:32;4.40;4.40;4.00
71794;PMS7003;59641;45.188;5.712;2022-10-16T01:40:30;4.00;4.00;2.60
71794;PMS7003;59641;45.188;5.712;2022-10-16T01:43:00;5.00;5.00;3.20
71794;PMS7003;59641;45.188;5.712;2022-10-16T01:45:46;6.20;5.00;4.00
71794;PMS7003;59641;45.188;5.712;2022-10-16T01:48:13;4.00;4.00;3.60
71794;PMS7003;59641;45.188;5.712;2022-10-16T01:50:42;6.00;5.00;4.60
71794;PMS7003;59641;45.188;5.712;2022-10-16T01:53:13;5.40;5.40;4.00
71794;PMS7003;59641;45.188;5.712;2022-10-16T01:55:42;5.20;5.20;3.80
71794;PMS7003;59641;45.188;5.712;2022-10-16T01:58:12;6.60;5.00;4.80
71794;PMS7003;59641;45.188;5.712;2022-10-16T02:00:39;10.40;7.40;6.00
71794;PMS7003;59641;45.188;5.712;2022-10-16T02:03:08;6.80;6.20;4.40
71794;PMS7003;59641;45.188;5.712;2022-10-16T02:05:39;7.60;6.60;4.80
71794;PMS7003;59641;45.188;5.712;2022-10-16T02:08:07;7.40;7.00;6.40
71794;PMS7003;59641;45.188;5.712;2022-10-16T02:10:34;10.50;9.50;7.00
71794;PMS7003;59641;45.188;5.712;2022-10-16T02:13:04;11.00;8.60;6.00
71794;PMS7003;59641;45.188;5.712;2022-10-16T02:15:34;11.80;8.20;6.60
71794;PMS7003;59641;45.188;5.712;2022-10-16T02:18:00;10.00;8.00;6.25
71794;PMS7003;59641;45.188;5.712;2022-10-16T02:20:28;9.80;9.80;7.80
71794;PMS7003;59641;45.188;5.712;2022-10-16T02:22:59;7.00;6.20;5.00
71794;PMS7003;59641;45.188;5.712;2022-10-16T02:25:27;8.00;8.00;6.00
71794;PMS7003;59641;45.188;5.712;2022-10-16T02:30:57;10.40;8.20;6.40
71794;PMS7003;59641;45.188;5.712;2022-10-16T02:33:26;9.00;8.60;6.60
71794;PMS7003;59641;45.188;5.712;2022-10-16T02:35:55;8.60;7.80;6.00
71794;PMS7003;59641;45.188;5.712;2022-10-16T02:38:22;6.80;6.00;5.00
71794;PMS7003;59641;45.188;5.712;2022-10-16T02:40:50;7.20;6.00;4.60
71794;PMS7003;59641;45.188;5.712;2022-10-16T02:43:17;5.00;5.00;4.40
71794;PMS7003;59641;45.188;5.712;2022-10-16T02:45:43;7.00;5.75;5.00
71794;PMS7003;59641;45.188;5.712;2022-10-16T02:48:08;6.00;5.00;3.75
71794;PMS7003;59641;45.188;5.712;2022-10-16T02:50:34;6.00;6.00;5.00
71794;PMS7003;59641;45.188;5.712;2022-10-16T02:52:59;5.50;5.50;5.00
71794;PMS7003;59641;45.188;5.712;2022-10-16T02:55:25;4.00;4.00;3.50
71794;PMS7003;59641;45.188;5.712;2022-10-16T02:57:51;5.50;5.50;3.50
71794;PMS7003;59641;45.188;5.712;2022-10-16T03:00:17;6.00;5.00;4.60
71794;PMS7003;59641;45.188;5.712;2022-10-16T03:02:43;7.25;7.25;5.25
71794;PMS7003;59641;45.188;5.712;2022-10-16T03:05:09;4.00;4.00;3.00
71794;PMS7003;59641;45.188;5.712;2022-10-16T03:07:35;7.40;7.00;3.80
71794;PMS7003;59641;45.188;5.712;2022-10-16T03:10:00;5.25;5.00;5.00
71794;PMS7003;59641;45.188;5.712;2022-10-16T03:12:26;7.25;6.25;4.75
71794;PMS7003;59641;45.188;5.712;2022-10-16T03:14:53;4.40;4.40;4.00
71794;PMS7003;59641;45.188;5.712;2022-10-16T03:17:18;6.00;6.00;4.00
71794;PMS7003;59641;45.188;5.712;2022-10-16T03:19:44;6.50;6.00;4.00
71794;PMS7003;59641;45.188;5.712;2022-10-16T03:22:09;6.50;5.00;4.00
71794;PMS7003;59641;45.188;5.712;2022-10-16T03:24:34;6.75;6.25;5.00
71794;PMS7003;59641;45.188;5.712;2022-10-16T03:27:00;6.00;5.00;3.25
71794;PMS7003;59641;45.188;5.712;2022-10-16T03:29:25;8.25;6.00;3.75
71794;PMS7003;59641;45.188;5.712;2022-10-16T03:31:51;6.75;6.75;4.00
71794;PMS7003;59641;45.188;5.712;2022-10-16T03:34:16;6.50;5.00;4.00
71794;PMS7003;59641;45.188;5.712;2022-10-16T03:36:42;5.00;5.00;4.25
71794;PMS7003;59641;45.188;5.712;2022-10-16T03:39:07;8.50;7.25;5.00
71794;PMS7003;59641;45.188;5.712;2022-10-16T03:41:33;4.75;4.75;4.00
71794;PMS7003;59641;45.188;5.712;2022-10-16T03:43:58;9.50;8.50;6.00
71794;PMS7003;59641;45.188;5.712;2022-10-16T03:46:23;7.00;6.00;5.00
71794;PMS7003;59641;45.188;5.712;2022-10-16T03:48:49;5.25;5.25;4.50
71794;PMS7003;59641;45.188;5.712;2022-10-16T03:51:14;6.75;5.75;4.00
71794;PMS7003;59641;45.188;5.712;2022-10-16T03:53:40;6.25;5.50;3.25
71794;PMS7003;59641;45.188;5.712;2022-10-16T03:56:05;7.00;7.00;4.00
71794;PMS7003;59641;45.188;5.712;2022-10-16T03:58:31;4.40;4.00;3.00
71794;PMS7003;59641;45.188;5.712;2022-10-16T04:00:56;8.25;7.25;5.00
71794;PMS7003;59641;45.188;5.712;2022-10-16T04:03:22;9.00;7.25;5.25
71794;PMS7003;59641;45.188;5.712;2022-10-16T04:05:48;6.00;5.00;4.00
71794;PMS7003;59641;45.188;5.712;2022-10-16T04:08:13;9.25;7.75;5.50
71794;PMS7003;59641;45.188;5.712;2022-10-16T04:10:39;6.25;6.00;4.75
71794;PMS7003;59641;45.188;5.712;2022-10-16T04:13:04;6.75;5.50;5.00
71794;PMS7003;59641;45.188;5.712;2022-10-16T04:15:30;6.00;6.00;4.00
71794;PMS7003;59641;45.188;5.712;2022-10-16T04:17:55;5.75;4.75;3.00
71794;PMS7003;59641;45.188;5.712;2022-10-16T04:20:20;5.75;5.75;4.25
71794;PMS7003;59641;45.188;5.712;2022-10-16T04:22:46;6.50;6.00;4.00
71794;PMS7003;59641;45.188;5.712;2022-10-16T04:25:11;8.00;7.00;4.25
71794;PMS7003;59641;45.188;5.712;2022-10-16T04:27:37;7.25;7.25;4.50
71794;PMS7003;59641;45.188;5.712;2022-10-16T04:30:03;5.60;5.00;4.20
71794;PMS7003;59641;45.188;5.712;2022-10-16T04:32:29;9.00;9.00;6.20
71794;PMS7003;59641;45.188;5.712;2022-10-16T04:34:55;6.75;6.75;4.50
71794;PMS7003;59641;45.188;5.712;2022-10-16T04:37:26;8.75;7.25;5.00
71794;PMS7003;59641;45.188;5.712;2022-10-16T04:39:52;9.60;8.80;6.00
71794;PMS7003;59641;45.188;5.712;2022-10-16T04:42:19;11.00;10.40;6.00
71794;PMS7003;59641;45.188;5.712;2022-10-16T04:44:44;5.80;5.40;5.00
71794;PMS7003;59641;45.188;5.712;2022-10-16T04:47:10;6.25;6.25;4.50
71794;PMS7003;59641;45.188;5.712;2022-10-16T04:49:35;5.50;5.50;4.50
71794;PMS7003;59641;45.188;5.712;2022-10-16T04:52:01;4.25;4.00;3.75
71794;PMS7003;59641;45.188;5.712;2022-10-16T04:54:26;10.75;7.00;5.00
71794;PMS7003;59641;45.188;5.712;2022-10-16T04:56:52;11.00;11.00;7.00
71794;PMS7003;59641;45.188;5.712;2022-10-16T04:59:18;6.00;6.00;4.00
71794;PMS7003;59641;45.188;5.712;2022-10-16T05:01:44;5.00;5.00;4.00
71794;PMS7003;59641;45.188;5.712;2022-10-16T05:04:10;5.00;4.20;3.80
71794;PMS7003;59641;45.188;5.712;2022-10-16T05:06:36;6.00;6.00;4.75
71794;PMS7003;59641;45.188;5.712;2022-10-16T05:09:03;5.20;5.00;4.80
71794;PMS7003;59641;45.188;5.712;2022-10-16T05:11:29;9.00;8.00;5.75
71794;PMS7003;59641;45.188;5.712;2022-10-16T05:13:54;7.75;6.75;4.25
71794;PMS7003;59641;45.188;5.712;2022-10-16T05:16:20;7.50;4.75;4.00
71794;PMS7003;59641;45.188;5.712;2022-10-16T05:18:45;7.50;7.50;6.00
71794;PMS7003;59641;45.188;5.712;2022-10-16T05:21:10;7.50;6.75;6.00
71794;PMS7003;59641;45.188;5.712;2022-10-16T05:23:36;2.25;2.25;1.00
71794;PMS7003;59641;45.188;5.712;2022-10-16T05:26:01;11.25;9.25;8.00
71794;PMS7003;59641;45.188;5.712;2022-10-16T05:28:27;11.25;10.00;8.00
71794;PMS7003;59641;45.188;5.712;2022-10-16T05:30:55;12.60;11.00;8.80
71794;PMS7003;59641;45.188;5.712;2022-10-16T05:33:22;12.25;11.25;9.25
71794;PMS7003;59641;45.188;5.712;2022-10-16T05:35:49;10.40;10.20;8.00
71794;PMS7003;59641;45.188;5.712;2022-10-16T05:38:15;10.00;8.75;6.00
71794;PMS7003;59641;45.188;5.712;2022-10-16T05:40:44;9.00;8.60;6.60
71794;PMS7003;59641;45.188;5.712;2022-10-16T05:43:15;12.20;11.00;8.60
71794;PMS7003;59641;45.188;5.712;2022-10-16T05:45:41;12.00;11.75;8.50
71794;PMS7003;59641;45.188;5.712;2022-10-16T05:48:06;12.50;12.50;10.00
71794;PMS7003;59641;45.188;5.712;2022-10-16T05:50:31;10.25;10.25;7.50
71794;PMS7003;59641;45.188;5.712;2022-10-16T05:52:57;8.00;7.00;6.00
71794;PMS7003;59641;45.188;5.712;2022-10-16T05:55:22;5.50;5.50;4.00
71794;PMS7003;59641;45.188;5.712;2022-10-16T05:57:47;10.75;8.00;4.00
71794;PMS7003;59641;45.188;5.712;2022-10-16T06:00:13;6.00;6.00;5.00
71794;PMS7003;59641;45.188;5.712;2022-10-16T06:02:38;5.75;5.50;3.75
71794;PMS7003;59641;45.188;5.712;2022-10-16T06:05:04;3.75;3.75;3.00
71794;PMS7003;59641;45.188;5.712;2022-10-16T06:07:33;6.25;6.25;5.00
71794;PMS7003;59641;45.188;5.712;2022-10-16T06:09:59;6.20;4.80;4.00
71794;PMS7003;59641;45.188;5.712;2022-10-16T06:12:26;5.00;5.00;4.00
71794;PMS7003;59641;45.188;5.712;2022-10-16T06:14:52;7.20;6.00;5.40
71794;PMS7003;59641;45.188;5.712;2022-10-16T06:17:17;10.75;10.00;6.50
71794;PMS7003;59641;45.188;5.712;2022-10-16T06:19:42;6.50;5.00;5.00
71794;PMS7003;59641;45.188;5.712;2022-10-16T06:22:08;6.50;5.50;4.00
71794;PMS7003;59641;45.188;5.712;2022-10-16T06:24:33;9.50;8.50;6.75
71794;PMS7003;59641;45.188;5.712;2022-10-16T06:26:59;3.75;3.00;3.00
71794;PMS7003;59641;45.188;5.712;2022-10-16T06:29:24;6.00;4.50;2.75
71794;PMS7003;59641;45.188;5.712;2022-10-16T06:31:49;5.50;4.50;3.25
71794;PMS7003;59641;45.188;5.712;2022-10-16T06:34:15;3.50;3.50;3.00
71794;PMS7003;59641;45.188;5.712;2022-10-16T06:36:40;8.25;7.25;4.25
71794;PMS7003;59641;45.188;5.712;2022-10-16T06:39:06;7.25;6.50;4.50
71794;PMS7003;59641;45.188;5.712;2022-10-16T06:41:32;5.20;5.20;4.40
71794;PMS7003;59641;45.188;5.712;2022-10-16T06:43:58;6.00;6.00;5.00
71794;PMS7003;59641;45.188;5.712;2022-10-16T06:46:24;7.25;6.00;5.00
71794;PMS7003;59641;45.188;5.712;2022-10-16T06:48:51;7.00;5.60;3.60
71794;PMS7003;59641;45.188;5.712;2022-10-16T06:51:18;8.40;6.20;5.00
71794;PMS7003;59641;45.188;5.712;2022-10-16T06:53:47;6.00;5.60;4.00
71794;PMS7003;59641;45.188;5.712;2022-10-16T06:56:19;9.00;6.80;5.20
71794;PMS7003;59641;45.188;5.712;2022-10-16T06:58:47;7.40;6.00;4.00
71794;PMS7003;59641;45.188;5.712;2022-10-16T07:01:13;8.00;8.00;5.80
71794;PMS7003;59641;45.188;5.712;2022-10-16T07:03:41;10.00;8.40;5.80
71794;PMS7003;59641;45.188;5.712;2022-10-16T07:06:08;9.20;9.20;6.60
71794;PMS7003;59641;45.188;5.712;2022-10-16T07:08:36;9.00;7.60;4.40
71794;PMS7003;59641;45.188;5.712;2022-10-16T07:11:04;7.00;7.00;5.00
71794;PMS7003;59641;45.188;5.712;2022-10-16T07:13:35;6.00;5.80;4.00
71794;PMS7003;59641;45.188;5.712;2022-10-16T07:16:11;6.40;6.40;5.40
71794;PMS7003;59641;45.188;5.712;2022-10-16T07:18:41;9.60;8.20;6.00
71794;PMS7003;59641;45.188;5.712;2022-10-16T07:21:09;5.80;5.80;5.00
71794;PMS7003;59641;45.188;5.712;2022-10-16T07:23:37;5.60;5.40;4.80
71794;PMS7003;59641;45.188;5.712;2022-10-16T07:26:03;7.75;7.50;5.00
71794;PMS7003;59641;45.188;5.712;2022-10-16T07:28:29;9.40;7.80;5.00
71794;PMS7003;59641;45.188;5.712;2022-10-16T07:30:59;6.20;6.00;4.40
71794;PMS7003;59641;45.188;5.712;2022-10-16T07:33:26;5.40;5.40;3.00
71794;PMS7003;59641;45.188;5.712;2022-10-16T07:35:52;9.50;7.00;5.00
71794;PMS7003;59641;45.188;5.712;2022-10-16T07:38:18;9.80;8.80;6.80
71794;PMS7003;59641;45.188;5.712;2022-10-16T07:40:44;8.00;8.00;6.00
71794;PMS7003;59641;45.188;5.712;2022-10-16T07:43:10;8.25;6.50;5.00
71794;PMS7003;59641;45.188;5.712;2022-10-16T07:45:35;7.75;7.00;5.25
71794;PMS7003;59641;45.188;5.712;2022-10-16T07:48:01;7.50;6.00;4.25
71794;PMS7003;59641;45.188;5.712;2022-10-16T07:50:26;11.25;9.00;7.25
71794;PMS7003;59641;45.188;5.712;2022-10-16T07:52:52;11.25;9.00;6.75
71794;PMS7003;59641;45.188;5.712;2022-10-16T07:55:17;9.50;9.25;7.25
71794;PMS7003;59641;45.188;5.712;2022-10-16T07:57:42;8.25;8.00;6.00
71794;PMS7003;59641;45.188;5.712;2022-10-16T08:00:08;6.00;5.75;4.00
71794;PMS7003;59641;45.188;5.712;2022-10-16T08:02:38;4.20;4.20;2.40
71794;PMS7003;59641;45.188;5.712;2022-10-16T08:05:07;5.80;5.20;3.00
71794;PMS7003;59641;45.188;5.712;2022-10-16T08:07:33;5.00;3.20;2.60
71794;PMS7003;59641;45.188;5.712;2022-10-16T08:09:58;10.50;9.50;6.75
71794;PMS7003;59641;45.188;5.712;2022-10-16T08:12:24;5.50;5.00;3.50
71794;PMS7003;59641;45.188;5.712;2022-10-16T08:14:52;5.00;3.80;3.20
71794;PMS7003;59641;45.188;5.712;2022-10-16T08:17:18;3.00;2.25;1.50
71794;PMS7003;59641;45.188;5.712;2022-10-16T08:19:44;6.50;4.00;3.00
71794;PMS7003;59641;45.188;5.712;2022-10-16T08:22:10;2.40;0.80;0.00
71794;PMS7003;59641;45.188;5.712;2022-10-16T08:24:35;3.00;3.00;2.00
71794;PMS7003;59641;45.188;5.712;2022-10-16T08:27:02;4.40;4.20;3.00
71794;PMS7003;59641;45.188;5.712;2022-10-16T08:29:27;4.50;4.00;3.00
71794;PMS7003;59641;45.188;5.712;2022-10-16T08:31:53;4.50;4.00;3.00
71794;PMS7003;59641;45.188;5.712;2022-10-16T08:34:18;5.25;5.25;3.25
71794;PMS7003;59641;45.188;5.712;2022-10-16T08:36:44;4.75;3.50;3.25
71794;PMS7003;59641;45.188;5.712;2022-10-16T08:39:09;3.25;3.00;2.25
71794;PMS7003;59641;45.188;5.712;2022-10-16T08:47:13;5.80;5.80;3.60
71794;PMS7003;59641;45.188;5.712;2022-10-16T08:49:53;4.60;4.60;3.00
71794;PMS7003;59641;45.188;5.712;2022-10-16T08:52:23;3.80;3.80;3.00
71794;PMS7003;59641;45.188;5.712;2022-10-16T08:54:53;3.80;3.00;2.60
71794;PMS7003;59641;45.188;5.712;2022-10-16T08:57:21;3.00;3.00;2.00
71794;PMS7003;59641;45.188;5.712;2022-10-16T08:59:49;6.00;6.00;3.40
71794;PMS7003;59641;45.188;5.712;2022-10-16T09:02:19;3.00;3.00;2.00
71794;PMS7003;59641;45.188;5.712;2022-10-16T09:04:58;7.00;6.40;4.20
71794;PMS7003;59641;45.188;5.712;2022-10-16T09:08:13;7.00;3.80;3.00
71794;PMS7003;59641;45.188;5.712;2022-10-16T09:10:43;6.20;5.80;3.60
71794;PMS7003;59641;45.188;5.712;2022-10-16T09:13:17;5.40;5.40;3.00
71794;PMS7003;59641;45.188;5.712;2022-10-16T09:18:41;5.00;5.00;4.00
71794;PMS7003;59641;45.188;5.712;2022-10-16T09:21:39;4.40;4.00;2.60
71794;PMS7003;59641;45.188;5.712;2022-10-16T09:24:12;4.00;4.00;3.00
71794;PMS7003;59641;45.188;5.712;2022-10-16T09:26:40;7.40;7.00;5.00
71794;PMS7003;59641;45.188;5.712;2022-10-16T09:29:05;7.00;6.00;4.25
71794;PMS7003;59641;45.188;5.712;2022-10-16T09:31:31;6.00;5.50;4.00
71794;PMS7003;59641;45.188;5.712;2022-10-16T09:33:58;3.50;3.50;2.50
71794;PMS7003;59641;45.188;5.712;2022-10-16T09:36:29;3.00;3.00;2.00
71794;PMS7003;59641;45.188;5.712;2022-10-16T09:39:07;4.00;2.80;2.80
71794;PMS7003;59641;45.188;5.712;2022-10-16T09:41:35;6.80;6.40;5.80
71794;PMS7003;59641;45.188;5.712;2022-10-16T09:44:03;4.20;3.20;2.00
71794;PMS7003;59641;45.188;5.712;2022-10-16T09:46:40;3.80;3.80;3.20
71794;PMS7003;59641;45.188;5.712;2022-10-16T09:51:46;5.60;5.40;4.00
71794;PMS7003;59641;45.188;5.712;2022-10-16T09:54:15;4.40;3.40;3.00
71794;PMS7003;59641;45.188;5.712;2022-10-16T09:56:45;4.00;4.00;3.00
71794;PMS7003;59641;45.188;5.712;2022-10-16T09:59:17;2.40;2.40;2.00
71794;PMS7003;59641;45.188;5.712;2022-10-16T10:01:48;4.00;4.00;3.00
71794;PMS7003;59641;45.188;5.712;2022-10-16T10:04:18;4.00;4.00;3.40
71794;PMS7003;59641;45.188;5.712;2022-10-16T10:12:21;9.00;6.20;3.20
71794;PMS7003;59641;45.188;5.712;2022-10-16T10:14:50;3.00;3.00;2.00
71794;PMS7003;59641;45.188;5.712;2022-10-16T10:17:24;5.20;4.60;3.20
71794;PMS7003;59641;45.188;5.712;2022-10-16T10:20:13;5.00;3.40;3.00
71794;PMS7003;59641;45.188;5.712;2022-10-16T10:22:41;6.80;6.40;5.60
71794;PMS7003;59641;45.188;5.712;2022-10-16T10:27:39;16.25;13.75;10.75
71794;PMS7003;59641;45.188;5.712;2022-10-16T10:30:23;6.20;6.20;5.00
71794;PMS7003;59641;45.188;5.712;2022-10-16T10:36:01;3.00;3.00;2.00
71794;PMS7003;59641;45.188;5.712;2022-10-16T10:50:10;9.00;8.20;6.80
71794;PMS7003;59641;45.188;5.712;2022-10-16T11:09:18;12.00;10.60;8.00
71794;PMS7003;59641;45.188;5.712;2022-10-16T11:14:34;6.00;6.00;5.00
71794;PMS7003;59641;45.188;5.712;2022-10-16T11:17:18;5.40;3.00;2.40
71794;PMS7003;59641;45.188;5.712;2022-10-16T11:25:56;7.00;6.60;5.60
71794;PMS7003;59641;45.188;5.712;2022-10-16T11:28:29;5.80;5.40;4.00
71794;PMS7003;59641;45.188;5.712;2022-10-16T11:31:19;6.40;6.00;4.80
71794;PMS7003;59641;45.188;5.712;2022-10-16T11:34:05;6.40;6.40;4.80
71794;PMS7003;59641;45.188;5.712;2022-10-16T11:39:32;3.00;3.00;3.00
71794;PMS7003;59641;45.188;5.712;2022-10-16T11:42:04;4.60;4.60;3.60
71794;PMS7003;59641;45.188;5.712;2022-10-16T11:50:02;4.60;4.00;3.80
71794;PMS7003;59641;45.188;5.712;2022-10-16T11:52:49;1.40;1.40;0.80
71794;PMS7003;59641;45.188;5.712;2022-10-16T11:55:41;7.00;6.00;5.00
71794;PMS7003;59641;45.188;5.712;2022-10-16T12:00:47;4.80;4.80;3.20
71794;PMS7003;59641;45.188;5.712;2022-10-16T12:08:48;3.80;2.80;2.00
71794;PMS7003;59641;45.188;5.712;2022-10-16T12:14:05;7.20;7.20;5.00
71794;PMS7003;59641;45.188;5.712;2022-10-16T12:16:56;9.80;6.00;4.40
71794;PMS7003;59641;45.188;5.712;2022-10-16T12:19:25;3.80;3.80;2.60
71794;PMS7003;59641;45.188;5.712;2022-10-16T12:21:53;4.00;3.60;2.20
71794;PMS7003;59641;45.188;5.712;2022-10-16T12:24:37;4.00;4.00;2.80
71794;PMS7003;59641;45.188;5.712;2022-10-16T12:30:03;3.40;2.20;1.80
71794;PMS7003;59641;45.188;5.712;2022-10-16T12:32:34;1.40;1.40;0.80
71794;PMS7003;59641;45.188;5.712;2022-10-16T12:35:03;1.60;1.60;1.00
71794;PMS7003;59641;45.188;5.712;2022-10-16T12:37:36;3.40;3.00;2.00
71794;PMS7003;59641;45.188;5.712;2022-10-16T12:40:15;2.60;2.60;2.00
71794;PMS7003;59641;45.188;5.712;2022-10-16T12:42:50;2.20;2.20;1.80
71794;PMS7003;59641;45.188;5.712;2022-10-16T12:45:32;3.75;3.25;2.00
71794;PMS7003;59641;45.188;5.712;2022-10-16T12:47:59;3.20;3.20;1.60
71794;PMS7003;59641;45.188;5.712;2022-10-16T12:50:36;3.80;3.20;2.00
71794;PMS7003;59641;45.188;5.712;2022-10-16T12:53:16;2.80;1.80;1.20
71794;PMS7003;59641;45.188;5.712;2022-10-16T12:55:59;3.00;1.80;1.00
71794;PMS7003;59641;45.188;5.712;2022-10-16T12:58:40;2.00;2.00;1.20
71794;PMS7003;59641;45.188;5.712;2022-10-16T13:04:20;2.80;2.80;2.00
71794;PMS7003;59641;45.188;5.712;2022-10-16T13:07:09;2.00;2.00;1.40
71794;PMS7003;59641;45.188;5.712;2022-10-16T13:10:14;2.20;2.20;1.00
71794;PMS7003;59641;45.188;5.712;2022-10-16T13:15:38;0.80;0.80;0.00
71794;PMS7003;59641;45.188;5.712;2022-10-16T13:18:11;2.00;2.00;1.60
71794;PMS7003;59641;45.188;5.712;2022-10-16T13:23:37;3.60;3.60;2.60
71794;PMS7003;59641;45.188;5.712;2022-10-16T13:26:13;3.00;3.00;2.00
71794;PMS7003;59641;45.188;5.712;2022-10-16T13:29:00;3.60;3.00;2.60
71794;PMS7003;59641;45.188;5.712;2022-10-16T13:31:26;2.60;2.00;2.00
71794;PMS7003;59641;45.188;5.712;2022-10-16T13:33:54;4.00;4.00;3.00
71794;PMS7003;59641;45.188;5.712;2022-10-16T13:36:30;2.20;1.40;1.00
71794;PMS7003;59641;45.188;5.712;2022-10-16T13:39:10;2.00;2.00;2.00
71794;PMS7003;59641;45.188;5.712;2022-10-16T13:41:38;1.80;1.80;1.20
71794;PMS7003;59641;45.188;5.712;2022-10-16T13:44:04;4.00;3.00;3.00
71794;PMS7003;59641;45.188;5.712;2022-10-16T13:46:34;1.60;0.80;0.60
71794;PMS7003;59641;45.188;5.712;2022-10-16T13:49:03;1.00;1.00;1.00
71794;PMS7003;59641;45.188;5.712;2022-10-16T13:51:40;2.40;2.40;2.00
71794;PMS7003;59641;45.188;5.712;2022-10-16T13:54:07;3.00;3.00;2.00
71794;PMS7003;59641;45.188;5.712;2022-10-16T13:56:34;2.00;0.00;0.00
71794;PMS7003;59641;45.188;5.712;2022-10-16T13:59:01;2.00;2.00;2.00
71794;PMS7003;59641;45.188;5.712;2022-10-16T14:01:29;2.00;2.00;1.00
71794;PMS7003;59641;45.188;5.712;2022-10-16T14:04:02;1.20;1.20;1.00
71794;PMS7003;59641;45.188;5.712;2022-10-16T14:06:30;1.00;1.00;0.80
71794;PMS7003;59641;45.188;5.712;2022-10-16T14:11:57;2.00;2.00;1.20
71794;PMS7003;59641;45.188;5.712;2022-10-16T14:14:41;4.60;4.60;3.60
71794;PMS7003;59641;45.188;5.712;2022-10-16T14:17:19;2.80;2.80;2.00
71794;PMS7003;59641;45.188;5.712;2022-10-16T14:20:12;3.00;2.00;1.40
71794;PMS7003;59641;45.188;5.712;2022-10-16T14:22:41;4.00;4.00;3.80
71794;PMS7003;59641;45.188;5.712;2022-10-16T14:27:45;1.60;1.60;1.00
71794;PMS7003;59641;45.188;5.712;2022-10-16T14:30:22;1.00;1.00;0.00
71794;PMS7003;59641;45.188;5.712;2022-10-16T14:32:55;1.80;1.80;1.00
71794;PMS7003;59641;45.188;5.712;2022-10-16T14:35:27;1.80;1.00;0.40
71794;PMS7003;59641;45.188;5.712;2022-10-16T14:38:04;1.00;1.00;1.00
71794;PMS7003;59641;45.188;5.712;2022-10-16T14:40:45;0.40;0.40;0.20
71794;PMS7003;59641;45.188;5.712;2022-10-16T14:43:24;1.00;1.00;0.20
71794;PMS7003;59641;45.188;5.712;2022-10-16T14:45:52;1.00;1.00;0.20
71794;PMS7003;59641;45.188;5.712;2022-10-16T14:48:20;1.00;1.00;0.00
71794;PMS7003;59641;45.188;5.712;2022-10-16T14:50:46;3.00;3.00;1.00
71794;PMS7003;59641;45.188;5.712;2022-10-16T14:53:11;1.00;1.00;1.00
71794;PMS7003;59641;45.188;5.712;2022-10-16T14:55:38;3.00;2.00;0.20
71794;PMS7003;59641;45.188;5.712;2022-10-16T14:58:05;1.00;1.00;0.20
71794;PMS7003;59641;45.188;5.712;2022-10-16T15:00:30;2.75;1.25;1.00
71794;PMS7003;59641;45.188;5.712;2022-10-16T15:02:56;1.50;1.50;1.00
71794;PMS7003;59641;45.188;5.712;2022-10-16T15:05:26;2.00;1.00;0.00
71794;PMS7003;59641;45.188;5.712;2022-10-16T15:07:55;1.60;1.60;1.00
71794;PMS7003;59641;45.188;5.712;2022-10-16T15:10:24;1.40;1.40;0.00
71794;PMS7003;59641;45.188;5.712;2022-10-16T15:12:52;1.40;1.40;0.20
71794;PMS7003;59641;45.188;5.712;2022-10-16T15:18:00;1.80;1.80;1.00
71794;PMS7003;59641;45.188;5.712;2022-10-16T15:20:28;1.20;1.00;0.80
71794;PMS7003;59641;45.188;5.712;2022-10-16T15:22:59;2.80;2.80;1.60
71794;PMS7003;59641;45.188;5.712;2022-10-16T15:25:31;1.00;1.00;1.00
71794;PMS7003;59641;45.188;5.712;2022-10-16T15:28:07;3.00;3.00;1.60
71794;PMS7003;59641;45.188;5.712;2022-10-16T15:30:34;4.00;2.20;2.00
71794;PMS7003;59641;45.188;5.712;2022-10-16T15:33:01;0.00;0.00;0.00
71794;PMS7003;59641;45.188;5.712;2022-10-16T15:35:27;4.60;2.40;2.00
71794;PMS7003;59641;45.188;5.712;2022-10-16T15:37:52;2.50;2.50;1.75
71794;PMS7003;59641;45.188;5.712;2022-10-16T15:40:18;5.50;3.75;3.00
71794;PMS7003;59641;45.188;5.712;2022-10-16T15:42:44;2.60;1.80;0.00
71794;PMS7003;59641;45.188;5.712;2022-10-16T15:45:10;2.00;2.00;2.00
71794;PMS7003;59641;45.188;5.712;2022-10-16T15:47:36;2.00;2.00;1.80
71794;PMS7003;59641;45.188;5.712;2022-10-16T15:50:02;1.75;1.50;1.00
71794;PMS7003;59641;45.188;5.712;2022-10-16T15:52:28;1.00;1.00;1.00
71794;PMS7003;59641;45.188;5.712;2022-10-16T15:54:54;4.60;2.20;1.20
71794;PMS7003;59641;45.188;5.712;2022-10-16T15:57:20;2.50;2.50;2.50
71794;PMS7003;59641;45.188;5.712;2022-10-16T15:59:45;5.75;2.00;1.75
71794;PMS7003;59641;45.188;5.712;2022-10-16T16:02:11;3.00;3.00;2.00
71794;PMS7003;59641;45.188;5.712;2022-10-16T16:04:36;3.00;3.00;1.25
71794;PMS7003;59641;45.188;5.712;2022-10-16T16:07:02;3.75;3.00;1.00
71794;PMS7003;59641;45.188;5.712;2022-10-16T16:09:30;1.00;1.00;1.00
71794;PMS7003;59641;45.188;5.712;2022-10-16T16:11:56;2.80;2.00;1.60
71794;PMS7003;59641;45.188;5.712;2022-10-16T16:14:23;1.20;1.20;1.20
71794;PMS7003;59641;45.188;5.712;2022-10-16T16:16:49;2.00;2.00;1.80
71794;PMS7003;59641;45.188;5.712;2022-10-16T16:19:14;3.00;3.00;2.00
71794;PMS7003;59641;45.188;5.712;2022-10-16T16:21:41;1.00;1.00;1.00